LEAM/LEI METAR and TAF weather

Enter ICAO airport designator
Station Type Date Time Source
LEAM METAR 2019/06/27 04:00 UTC NOAA

LEAM 270400Z 34004KT 9999 BKN020 23/20 Q1015


Station Type Date Time Source
LEAM Decoded METAR 2019/06/27 04:00 UTC NOAA

Almeria / Aeropuerto, Spain (LEAM) 36-51N 002-23W 21M
Jun 27, 2019 - 12:00 AM EDT / 2019.06.27 0400 UTC
Wind: from the NNW (340 degrees) at 5 MPH (4 KT):0
Visibility: greater than 7 mile(s):0
Sky conditions: mostly cloudy
Temperature: 73 F (23 C)
Dew Point: 68 F (20 C)
Relative Humidity: 83%
Pressure (altimeter): 29.97 in. Hg (1015 hPa)
ob: LEAM 270400Z 34004KT 9999 BKN020 23/20 Q1015
cycle: 4

Station Type Date Time Source
LEAM TAF 2019/06/27 03:31 UTC NOAA

TAF LEAM 270200Z 2703/2803 VRB02KT 9999 FEW030 TX33/2713Z TN20/2705Z
BECMG 2707/2709 21010KT
BECMG 2719/2721 VRB02KT

Example: see airport list